< Cyclone 202110 2021 Season Cyclone 202112 >
Cyclone 202111 (Lucas)
General InformationTrack Information on Google Maps || ResourceGoogle EarthGE AnimationAtom FeedGeoJSON
Year Month Day Hour Lat. Long. Pressure (hPa) Wind (kt) Class Image Chart
2021 1 24 00 -12.3 137.9 1005 0 0 Image --
2021 1 24 05 -12.4 137.8 1004.3333 0 0 Image --
2021 1 24 12 -13.6 137.8 1003.6667 0 0 Image --
2021 1 25 00 -14.6 138.8 1003 20 2 Image --
2021 1 25 03 -14.6 138.7 1001 20 2 Image --
2021 1 25 06 -14.7 138.6 999 20 2 Image --
2021 1 25 12 -15.2 138.9 1000 20 2 Image --
2021 1 25 18 -15.3 139.5 1000 20 2 Image --
2021 1 26 00 -14.9 140.1 1000 25 2 Image --
2021 1 26 06 -15.0 140.5 999 25 2 Image --
2021 1 26 12 -15.0 141.0 999 25 2 Image --
2021 1 26 15 -14.9 141.2 999 25 2 Image --
2021 1 26 18 -14.8 141.4 999 25 2 Image --
2021 1 26 21 -14.7 141.6 999 25 2 Image --
2021 1 27 00 -14.6 141.8 1000 25 2 Image --
2021 1 27 21 -14.9 143.2 1001 20 2 Image --
2021 1 28 21 -14.3 143.7 1001.5 20 2 Image --
2021 1 29 00 -14.0 143.7 1002 20 2 Image --
2021 1 29 12 -13.2 145.8 1002 20 2 Image --
2021 1 29 18 -13.0 147.2 998 25 2 Image --
2021 1 30 00 -13.0 148.1 998 30 2 Image --
2021 1 30 06 -13.0 149.0 998 30 2 Image --
2021 1 30 09 -13.1 149.5 998 30 2 Image --
2021 1 30 12 -13.2 150.2 997 30 2 Image --
2021 1 30 15 -13.3 150.9 997 30 2 Image --
2021 1 30 18 -13.6 151.5 997 30 2 Image --
2021 1 30 21 -13.8 152.0 997 30 2 Image --
2021 1 31 00 -13.9 152.4 997 30 2 Image --
2021 1 31 03 -13.8 152.7 996 35 3 Image --
2021 1 31 06 -13.8 153.1 994 35 3 Image --
2021 1 31 09 -13.3 154.7 990 50 4 Image --
2021 1 31 12 -13.2 155.4 991 50 4 Image --
2021 1 31 15 -13.2 156.5 990 50 4 Image --
2021 1 31 18 -13.2 157.5 990 50 4 Image --
2021 2 1 00 -13.9 158.4 985 50 4 Image --
2021 2 1 06 -14.4 160.5 985 55 4 Image --
2021 2 1 12 -15.5 162.6 985 55 4 Image --
2021 2 1 18 -16.9 163.6 975 60 4 Image --
2021 2 2 00 -17.1 164.8 985 55 4 Image --
2021 2 2 06 -18.2 166.1 980 50 4 Image --
2021 2 2 12 -19.7 167.1 980 50 4 Image --
2021 2 2 18 -20.1 167.5 987 45 3 Image --
2021 2 3 00 -21.9 167.3 987 45 3 Image --
2021 2 3 06 -22.1 167.1 993 35 3 Image --
2021 2 3 12 -22.6 166.5 998 35 3 Image --
< Cyclone 202110 2021 Season Cyclone 202112 >

Help